createdAt,value
2022-11-14T00:02:25.751Z,50.70
2022-11-14T00:05:28.167Z,49.95
2022-11-14T00:08:30.876Z,47.13
2022-11-14T00:11:33.551Z,46.22
2022-11-14T00:17:38.658Z,42.58
2022-11-14T00:20:41.426Z,41.78
2022-11-14T00:23:43.903Z,45.70
2022-11-14T00:26:46.449Z,38.92
2022-11-14T00:29:48.856Z,42.15
2022-11-14T00:32:51.333Z,41.15
2022-11-14T00:35:57.437Z,44.00
2022-11-14T00:38:59.928Z,43.13
2022-11-14T00:42:02.324Z,45.25
2022-11-14T00:45:05.243Z,43.58
2022-11-14T00:48:07.656Z,44.22
2022-11-14T00:51:10.893Z,43.97
2022-11-14T00:54:13.346Z,45.05
2022-11-14T01:00:18.729Z,49.22
2022-11-14T01:03:21.445Z,46.50
2022-11-14T01:09:26.435Z,48.15
2022-11-14T01:15:31.274Z,46.27
2022-11-14T01:18:34.620Z,52.83
2022-11-14T01:21:37.791Z,54.08
2022-11-14T01:24:40.320Z,55.20
2022-11-14T01:27:42.768Z,54.00
2022-11-14T01:30:46.383Z,60.30
2022-11-14T01:33:50.671Z,58.25
2022-11-14T01:36:53.145Z,58.97
2022-11-14T01:39:55.579Z,61.30
2022-11-14T01:46:27.972Z,59.33
2022-11-14T01:49:37.379Z,56.47
2022-11-14T01:52:41.110Z,50.78
2022-11-14T01:55:43.956Z,49.90
2022-11-14T01:58:59.136Z,49.35
2022-11-14T02:02:06.654Z,46.67
2022-11-14T02:05:16.105Z,49.70
2022-11-14T02:08:19.254Z,50.85
2022-11-14T02:11:21.779Z,59.80
2022-11-14T02:14:24.451Z,57.90
2022-11-14T02:17:30.202Z,69.93
2022-11-14T02:20:38.254Z,69.10
2022-11-14T02:23:40.729Z,91.93
2022-11-14T02:26:45.693Z,70.40
2022-11-14T02:33:10.480Z,69.15
2022-11-14T02:36:13.232Z,49.25
2022-11-14T02:39:15.716Z,54.47
2022-11-14T02:42:18.219Z,62.05
2022-11-14T02:48:23.495Z,42.03
2022-11-14T02:51:25.979Z,44.40
2022-11-14T02:54:28.430Z,44.30
2022-11-14T02:57:30.882Z,48.75
2022-11-14T03:00:33.633Z,46.88
2022-11-14T03:06:38.339Z,41.10
2022-11-14T03:12:43.203Z,39.28
2022-11-14T03:15:46.119Z,41.63
2022-11-14T03:18:48.954Z,40.70
2022-11-14T03:24:53.990Z,49.13
2022-11-14T03:27:56.496Z,54.28
2022-11-14T03:34:01.208Z,63.67
2022-11-14T03:37:03.687Z,61.33
2022-11-14T03:43:09.117Z,66.97
2022-11-14T03:46:11.552Z,71.07
2022-11-14T03:49:14.022Z,64.75
2022-11-14T03:52:16.512Z,77.22
2022-11-14T03:55:18.972Z,77.15
2022-11-14T03:58:21.415Z,63.00
2022-11-14T04:01:23.912Z,91.30
2022-11-14T04:07:28.722Z,94.70
2022-11-14T04:10:31.520Z,107.75
2022-11-14T04:13:34.075Z,131.32
2022-11-14T04:19:38.887Z,118.13
2022-11-14T04:22:41.604Z,104.50
2022-11-14T04:25:44.934Z,134.02
2022-11-14T04:28:47.511Z,111.10
2022-11-14T04:31:49.981Z,74.68
2022-11-14T04:34:52.443Z,100.85
2022-11-14T04:37:54.876Z,127.90
2022-11-14T04:40:57.269Z,149.73
2022-11-14T04:43:59.742Z,90.18
2022-11-14T04:47:02.404Z,70.60
2022-11-14T04:50:05.551Z,118.93
2022-11-14T04:53:08.137Z,86.50
2022-11-14T04:59:15.802Z,68.63
2022-11-14T05:02:22.147Z,80.88
2022-11-14T05:05:24.556Z,72.60
2022-11-14T05:08:27.279Z,56.67
2022-11-14T05:11:30.049Z,42.50
2022-11-14T05:17:34.850Z,35.13
2022-11-14T05:23:39.975Z,20.77
2022-11-14T05:26:42.384Z,37.30
2022-11-14T05:29:44.868Z,36.05
2022-11-14T05:32:47.484Z,32.55
2022-11-14T05:38:52.171Z,27.60
2022-11-14T05:41:54.561Z,30.60
2022-11-14T05:44:57.126Z,36.08
2022-11-14T05:51:03.953Z,29.57
2022-11-14T05:54:06.491Z,20.98
2022-11-14T05:57:08.894Z,40.63
2022-11-14T06:00:12.045Z,38.30
2022-11-14T06:03:15.271Z,49.83
2022-11-14T06:06:21.008Z,33.70
2022-11-14T06:09:23.727Z,33.13
2022-11-14T06:12:26.153Z,28.02
2022-11-14T06:15:28.713Z,33.50
2022-11-14T06:21:34.175Z,26.75
2022-11-14T06:24:36.668Z,32.35
2022-11-14T06:30:41.682Z,30.87
2022-11-14T06:33:44.264Z,31.40
2022-11-14T06:39:48.957Z,38.77
2022-11-14T06:42:51.419Z,26.13
2022-11-14T06:48:56.877Z,26.60
2022-11-14T06:51:59.299Z,29.55
2022-11-14T06:55:01.734Z,23.88
2022-11-14T06:58:04.237Z,49.20
2022-11-14T07:01:11.233Z,27.67
2022-11-14T07:04:13.847Z,63.75
2022-11-14T07:07:16.307Z,48.22
2022-11-14T07:10:18.885Z,37.65
2022-11-14T07:16:31.965Z,26.00
2022-11-14T07:19:35.477Z,26.75
2022-11-14T07:22:38.005Z,35.90
2022-11-14T07:25:40.973Z,31.67
2022-11-14T07:28:48.090Z,24.45
2022-11-14T07:31:53.455Z,54.25
2022-11-14T07:35:01.893Z,28.38
2022-11-14T07:38:05.035Z,56.88
2022-11-14T07:44:16.853Z,35.83
2022-11-14T07:47:19.322Z,28.50
2022-11-14T07:50:21.805Z,35.55
2022-11-14T07:53:24.600Z,36.42
2022-11-14T07:56:27.157Z,18.75
2022-11-14T08:02:32.005Z,24.03
2022-11-14T08:05:35.346Z,20.77
2022-11-14T08:08:38.221Z,24.10
2022-11-14T08:11:49.593Z,34.72
2022-11-14T08:14:51.999Z,24.77
2022-11-14T08:18:00.964Z,23.23
2022-11-14T08:21:06.730Z,15.48
2022-11-14T08:24:09.238Z,28.05
2022-11-14T08:27:11.627Z,32.20
2022-11-14T08:33:16.699Z,17.33
2022-11-14T08:36:19.344Z,14.80
2022-11-14T08:39:21.896Z,16.00
2022-11-14T08:42:24.417Z,18.23
2022-11-14T08:45:26.991Z,15.98
2022-11-14T08:48:31.038Z,16.60
2022-11-14T08:51:36.164Z,15.27
2022-11-14T08:54:39.075Z,18.80
2022-11-14T08:57:44.187Z,17.77
2022-11-14T09:00:52.141Z,17.15
2022-11-14T09:03:59.643Z,16.73
2022-11-14T09:07:02.491Z,20.13
2022-11-14T09:10:06.392Z,18.30
2022-11-14T09:13:09.249Z,18.30
2022-11-14T09:19:14.099Z,20.97
2022-11-14T09:22:16.741Z,31.92
2022-11-14T09:28:25.146Z,21.30
2022-11-14T09:31:27.604Z,24.30
2022-11-14T09:34:30.042Z,21.50
2022-11-14T09:37:32.559Z,20.98
2022-11-14T09:40:52.702Z,18.92
2022-11-14T09:44:20.936Z,17.50
2022-11-14T09:47:30.539Z,19.80
2022-11-14T09:50:37.365Z,17.30
2022-11-14T09:53:57.917Z,20.83
2022-11-14T09:57:00.661Z,17.15
2022-11-14T10:00:12.289Z,16.85
2022-11-14T10:03:26.451Z,12.37
2022-11-14T10:06:50.234Z,16.15
2022-11-14T10:10:01.315Z,15.32
2022-11-14T10:13:41.093Z,15.82
2022-11-14T10:16:52.266Z,19.95
2022-11-14T10:20:15.103Z,14.88
2022-11-14T10:26:38.570Z,16.38
2022-11-14T10:29:44.189Z,19.75
2022-11-14T10:32:54.111Z,16.75
2022-11-14T10:36:21.293Z,15.88
2022-11-14T10:39:39.229Z,17.58
2022-11-14T10:42:44.518Z,18.75
2022-11-14T10:46:11.951Z,21.50
2022-11-14T10:49:21.472Z,16.63
2022-11-14T10:52:37.116Z,16.30
2022-11-14T10:56:05.592Z,17.60
2022-11-14T10:59:02.008Z,18.20
2022-11-14T11:02:04.752Z,17.20
2022-11-14T11:05:16.294Z,15.45
2022-11-14T11:08:51.458Z,15.70
2022-11-14T11:12:01.683Z,18.05
2022-11-14T11:15:26.636Z,16.90
2022-11-14T11:18:36.901Z,18.00
2022-11-14T11:21:51.227Z,16.80
2022-11-14T11:24:54.452Z,16.33
2022-11-14T11:28:18.353Z,14.45
2022-11-14T11:31:21.001Z,16.63
2022-11-14T11:34:29.458Z,18.63
2022-11-14T11:37:40.512Z,16.45
2022-11-14T11:40:49.201Z,13.73
2022-11-14T11:44:04.721Z,13.13
2022-11-14T11:47:14.245Z,11.18
2022-11-14T11:50:20.760Z,14.35
2022-11-14T11:53:32.214Z,12.82
2022-11-14T11:56:38.044Z,14.38
2022-11-14T11:59:49.322Z,13.48
2022-11-14T12:02:54.127Z,12.00
2022-11-14T12:05:59.470Z,13.60
2022-11-14T12:09:05.267Z,15.23
2022-11-14T12:12:18.937Z,16.02
2022-11-14T12:15:51.760Z,18.20
2022-11-14T12:19:08.957Z,16.88
2022-11-14T12:22:44.346Z,18.45
2022-11-14T12:25:59.143Z,17.02
2022-11-14T12:29:05.387Z,18.73
2022-11-14T12:32:15.599Z,23.05
2022-11-14T12:35:31.978Z,21.08
2022-11-14T12:38:45.694Z,21.48
2022-11-14T12:41:48.299Z,21.42
2022-11-14T12:48:31.630Z,23.70
2022-11-14T12:51:37.006Z,25.33
2022-11-14T12:54:45.001Z,26.10
2022-11-14T12:58:17.781Z,21.70
2022-11-14T13:01:47.229Z,21.13
2022-11-14T13:05:15.217Z,26.08
2022-11-14T13:08:32.618Z,24.20
2022-11-14T13:12:05.797Z,27.48
2022-11-14T13:15:49.302Z,26.45
2022-11-14T13:19:17.642Z,24.70
2022-11-14T13:22:37.320Z,25.10
2022-11-14T13:25:39.906Z,25.63
2022-11-14T13:28:50.894Z,24.77
2022-11-14T13:31:53.453Z,25.88
2022-11-14T13:35:12.061Z,27.25
2022-11-14T13:38:47.508Z,26.50
2022-11-14T13:42:08.615Z,27.75
2022-11-14T13:45:37.390Z,25.52
2022-11-14T13:49:09.300Z,26.60
2022-11-14T13:52:13.301Z,27.67
2022-11-14T13:55:27.815Z,29.02
2022-11-14T13:58:48.467Z,35.30
2022-11-14T14:02:08.905Z,34.00
2022-11-14T14:05:34.855Z,40.97
2022-11-14T14:08:55.393Z,44.03
2022-11-14T14:12:13.117Z,44.35
2022-11-14T14:15:45.892Z,40.30
2022-11-14T14:19:13.243Z,43.88
2022-11-14T14:22:44.556Z,36.10
2022-11-14T14:26:22.298Z,33.10
2022-11-14T14:29:26.356Z,29.58
2022-11-14T14:32:28.963Z,24.90
2022-11-14T14:38:43.002Z,23.83
2022-11-14T14:44:48.913Z,22.58
2022-11-14T14:48:15.690Z,29.63
2022-11-14T14:51:31.096Z,33.20
2022-11-14T14:54:33.585Z,36.22
2022-11-14T15:00:38.807Z,43.78
2022-11-14T15:06:47.601Z,38.33
2022-11-14T15:09:59.700Z,40.08
2022-11-14T15:13:02.283Z,40.40
2022-11-14T15:19:16.919Z,45.05
2022-11-14T15:22:19.435Z,43.90
2022-11-14T15:25:21.954Z,43.35
2022-11-14T15:31:27.279Z,35.88
2022-11-14T15:37:34.115Z,41.63
2022-11-14T15:40:41.106Z,41.60
2022-11-14T15:43:43.562Z,40.45
2022-11-14T15:46:49.892Z,44.33
2022-11-14T15:50:24.562Z,48.58
2022-11-14T15:53:30.430Z,36.22
2022-11-14T15:56:33.022Z,35.53
2022-11-14T15:59:35.505Z,34.75
2022-11-14T16:02:51.158Z,43.03
2022-11-14T16:05:53.579Z,40.28
2022-11-14T16:08:56.032Z,41.78
2022-11-14T16:15:00.936Z,36.13
2022-11-14T16:18:05.298Z,39.72
2022-11-14T16:21:16.262Z,34.75
2022-11-14T16:24:21.308Z,31.45
2022-11-14T16:27:23.900Z,30.52
2022-11-14T16:30:26.914Z,34.10
2022-11-14T16:33:29.711Z,32.50
2022-11-14T16:36:32.796Z,38.95
2022-11-14T16:39:35.576Z,42.83
2022-11-14T16:42:38.124Z,44.28
2022-11-14T16:45:42.316Z,41.92
2022-11-14T16:48:44.862Z,47.25
2022-11-14T16:54:52.939Z,51.42
2022-11-14T17:00:58.690Z,51.38
2022-11-14T17:04:01.711Z,52.88
2022-11-14T17:07:05.550Z,51.67
2022-11-14T17:10:10.283Z,50.13
2022-11-14T17:13:19.187Z,46.30
2022-11-14T17:16:25.101Z,43.53
2022-11-14T17:19:30.116Z,38.10
2022-11-14T17:22:32.618Z,36.70
2022-11-14T17:25:35.570Z,37.40
2022-11-14T17:28:38.924Z,36.70
2022-11-14T17:31:46.729Z,35.97
2022-11-14T17:34:49.583Z,36.72
2022-11-14T17:37:55.020Z,32.92
2022-11-14T17:41:06.132Z,33.78
2022-11-14T17:44:09.989Z,35.40
2022-11-14T17:47:12.821Z,34.28
2022-11-14T17:50:16.245Z,34.78
2022-11-14T17:53:19.856Z,37.50
2022-11-14T17:56:25.334Z,35.35
2022-11-14T17:59:27.889Z,29.67
2022-11-14T18:05:33.586Z,33.95
2022-11-14T18:08:37.455Z,34.58
2022-11-14T18:11:40.515Z,31.83
2022-11-14T18:14:43.248Z,28.70
2022-11-14T18:20:51.720Z,31.55
2022-11-14T18:23:57.437Z,32.33
2022-11-14T18:26:59.916Z,32.55
2022-11-14T18:30:13.818Z,37.20
2022-11-14T18:33:25.403Z,39.60
2022-11-14T18:36:28.542Z,36.95
2022-11-14T18:39:31.585Z,36.47
2022-11-14T18:42:34.740Z,35.70
2022-11-14T18:45:37.510Z,33.05
2022-11-14T18:48:42.197Z,37.17
2022-11-14T18:51:45.294Z,36.40
2022-11-14T18:54:48.180Z,40.53
2022-11-14T18:57:51.216Z,48.42
2022-11-14T19:00:54.337Z,40.38
2022-11-14T19:04:05.736Z,44.05
2022-11-14T19:07:10.408Z,43.58
2022-11-14T19:10:13.941Z,48.67
2022-11-14T19:13:18.224Z,50.47
2022-11-14T19:16:22.031Z,57.22
2022-11-14T19:19:24.855Z,53.03
2022-11-14T19:22:28.807Z,68.65
2022-11-14T19:25:36.781Z,71.97
2022-11-14T19:28:40.855Z,78.88
2022-11-14T19:31:44.548Z,82.03
2022-11-14T19:34:47.451Z,69.82
2022-11-14T19:37:50.311Z,84.57
2022-11-14T19:40:53.212Z,92.22
2022-11-14T19:43:58.219Z,105.72
2022-11-14T19:47:01.043Z,107.35
2022-11-14T19:50:03.987Z,111.75
2022-11-14T19:53:07.013Z,83.18
2022-11-14T19:56:12.105Z,99.15
2022-11-14T19:59:18.972Z,95.97
2022-11-14T20:02:26.362Z,96.57
2022-11-14T20:05:29.185Z,92.55
2022-11-14T20:08:31.720Z,89.03
2022-11-14T20:11:34.673Z,100.95
2022-11-14T20:14:37.533Z,104.40
2022-11-14T20:17:40.659Z,112.90
2022-11-14T20:20:46.719Z,134.93
2022-11-14T20:23:51.531Z,120.28
2022-11-14T20:26:54.318Z,89.25
2022-11-14T20:29:57.385Z,89.18
2022-11-14T20:32:59.869Z,107.35
2022-11-14T20:36:04.976Z,106.93
2022-11-14T20:39:07.903Z,93.30
2022-11-14T20:42:12.250Z,96.40
2022-11-14T20:45:15.859Z,90.60
2022-11-14T20:48:18.686Z,79.10
2022-11-14T20:51:24.551Z,82.85
2022-11-14T20:54:28.445Z,98.47
2022-11-14T20:57:31.688Z,84.60
2022-11-14T21:00:34.882Z,72.97
2022-11-14T21:03:38.355Z,74.53
2022-11-14T21:06:42.346Z,76.65
2022-11-14T21:09:44.908Z,72.05
2022-11-14T21:13:07.249Z,73.97
2022-11-14T21:16:12.314Z,81.82
2022-11-14T21:19:15.192Z,88.57
2022-11-14T21:22:17.653Z,72.53
2022-11-14T21:25:20.131Z,63.53
2022-11-14T21:28:22.816Z,62.42
2022-11-14T21:31:31.823Z,58.72
2022-11-14T21:34:34.410Z,55.45
2022-11-14T21:40:40.363Z,54.58
2022-11-14T21:43:44.283Z,56.63
2022-11-14T21:46:48.861Z,52.83
2022-11-14T21:49:59.895Z,50.50
2022-11-14T21:53:03.768Z,51.58
2022-11-14T21:56:12.324Z,50.03
2022-11-14T21:59:18.612Z,50.50
2022-11-14T22:02:39.498Z,50.88
2022-11-14T22:05:42.016Z,51.08
2022-11-14T22:11:47.367Z,49.72
2022-11-14T22:14:49.737Z,46.25
2022-11-14T22:17:52.151Z,49.28
2022-11-14T22:20:55.690Z,54.50
2022-11-14T22:23:58.198Z,60.20
2022-11-14T22:27:00.712Z,55.40
2022-11-14T22:30:03.366Z,58.95
2022-11-14T22:33:05.939Z,50.10
2022-11-14T22:36:12.448Z,52.95
2022-11-14T22:39:15.629Z,59.50
2022-11-14T22:45:20.439Z,59.93
2022-11-14T22:48:24.497Z,56.97
2022-11-14T22:51:28.228Z,63.63
2022-11-14T22:54:30.836Z,59.70
2022-11-14T22:57:33.296Z,55.70
2022-11-14T23:00:36.703Z,57.38
2022-11-14T23:03:40.741Z,60.03
2022-11-14T23:06:43.544Z,54.55
2022-11-14T23:09:46.186Z,59.90
2022-11-14T23:12:48.900Z,66.35
2022-11-14T23:15:51.794Z,59.92
2022-11-14T23:18:56.512Z,66.32
2022-11-14T23:21:59.293Z,58.78
2022-11-14T23:25:02.012Z,60.90
2022-11-14T23:28:04.813Z,58.00
2022-11-14T23:31:08.548Z,55.05
2022-11-14T23:34:11.344Z,53.10
2022-11-14T23:37:14.044Z,51.88
2022-11-14T23:40:16.924Z,50.97
2022-11-14T23:43:20.174Z,44.92
2022-11-14T23:46:23.087Z,47.97
2022-11-14T23:49:25.833Z,47.92
2022-11-14T23:52:28.632Z,42.75
2022-11-14T23:55:31.263Z,49.65
